Amsel, Algeria
Current Conditions -  °F | °C
As of 5:00 PM on Monday 24 Nov 2014 (Local Time) from DAAT Reporting Station
Clear Clear  
Wind Chill: 73°   Ceiling: Unl
Heat Index: 73°   Visibility: 6mi
Dew Point: 28°   Wind: 6mph
Humidity: 19%   Direction: 120°ESE
Pressure: 30.18"   Gusts: NA
Location:  22.63°N, 5.43°E
Report Text: DAAT 241600Z 12005KT 090V160 CAVOK 23/M02 Q1022
Loading
Personal Weather Stations






























Interactive Weather Map New forecast layout! Learn more

10-Day Weather Forecast

Advertisements
Track Severe Weather on mobile